Time;durP1;ratioP1;P1;durP2;ratioP2;P2;SDS_P1;SDS_P2;PMS_P1;PMS_P2;Temp;Humidity;BMP_temperature;BMP_pressure;BME280_temperature;BME280_humidity;BME280_pressure;Samples;Min_cycle;Max_cycle;Signal;HPM_P1;HPM_P2
2023/06/19 00:00:45;;;;;;;12.00;9.27;;;;;;;19.03;53.35;95789.59;2115133;28;20043;-59
2023/06/19 00:01:46;;;;;;;12.75;9.02;;;;;;;18.99;53.53;95780.28;2114496;28;20055;-59
2023/06/19 00:02:47;;;;;;;14.70;9.35;;;;;;;18.98;54.51;95780.38;2115122;28;20040;-59
2023/06/19 00:03:48;;;;;;;11.45;8.85;;;;;;;18.95;53.90;95789.38;2113932;28;20047;-59
2023/06/19 00:04:49;;;;;;;12.93;9.18;;;;;;;18.92;54.43;95790.50;2115364;28;20046;-59
2023/06/19 00:05:50;;;;;;;11.50;8.60;;;;;;;18.89;53.90;95789.88;2114469;28;20071;-59
2023/06/19 00:06:52;;;;;;;10.80;8.98;;;;;;;18.87;53.91;95783.91;2098390;28;20044;-59
2023/06/19 00:07:53;;;;;;;11.70;8.40;;;;;;;18.76;54.25;95770.84;2097866;28;20049;-59
2023/06/19 00:08:54;;;;;;;13.23;9.57;;;;;;;18.81;54.13;95780.00;2098314;28;20377;-60
2023/06/19 00:09:56;;;;;;;12.77;8.98;;;;;;;18.79;55.01;95783.72;2097633;28;20040;-59
2023/06/19 00:10:57;;;;;;;10.55;9.02;;;;;;;18.70;54.98;95777.41;2097459;28;20059;-59
2023/06/19 00:11:59;;;;;;;11.13;8.98;;;;;;;18.61;55.39;95770.28;2097528;28;20392;-59
2023/06/19 00:13:00;;;;;;;12.82;9.93;;;;;;;18.69;54.66;95788.91;2098350;28;20468;-59
2023/06/19 00:14:01;;;;;;;11.65;9.02;;;;;;;18.66;55.47;95787.34;2098404;28;20048;-60
2023/06/19 00:15:03;;;;;;;13.35;9.23;;;;;;;18.65;55.14;95790.94;2097821;28;20052;-59
2023/06/19 00:16:04;;;;;;;15.15;9.63;;;;;;;18.64;55.34;95783.19;2098324;28;20053;-59
2023/06/19 00:17:05;;;;;;;13.77;9.43;;;;;;;18.62;55.15;95788.56;2098119;28;20425;-60
2023/06/19 00:18:06;;;;;;;12.40;9.05;;;;;;;18.61;55.94;95786.91;2098144;28;20047;-59
2023/06/19 00:19:08;;;;;;;11.63;8.65;;;;;;;18.59;55.42;95788.81;2098031;28;20063;-59
2023/06/19 00:20:09;;;;;;;12.80;9.07;;;;;;;18.50;55.87;95772.00;2098613;28;20044;-59
2023/06/19 00:21:11;;;;;;;14.23;9.45;;;;;;;18.56;55.78;95791.72;2098451;28;20055;-59
2023/06/19 00:22:12;;;;;;;12.20;9.15;;;;;;;18.52;55.97;95782.38;2098379;28;20056;-60
2023/06/19 00:23:16;;;;;;;12.13;9.05;;;;;;;18.39;56.27;95766.81;2098436;28;20049;-60
2023/06/19 00:24:17;;;;;;;11.95;8.55;;;;;;;18.43;56.23;95785.78;2098093;28;20042;-59
2023/06/19 00:25:19;;;;;;;13.77;9.57;;;;;;;18.35;55.86;95775.06;2098329;28;20048;-60
2023/06/19 00:26:22;;;;;;;11.32;8.85;;;;;;;18.29;55.97;95771.97;2098302;28;20059;-59
2023/06/19 00:27:24;;;;;;;11.45;8.50;;;;;;;18.34;56.89;95783.91;2098143;28;20037;-59
2023/06/19 00:28:25;;;;;;;12.00;9.30;;;;;;;18.32;57.10;95783.19;2097249;28;20124;-59
2023/06/19 00:29:27;;;;;;;10.65;8.80;;;;;;;18.29;56.53;95777.22;2097631;28;20488;-59
2023/06/19 00:30:32;;;;;;;12.52;9.43;;;;;;;18.28;56.85;95779.97;2098219;28;20358;-59
2023/06/19 00:31:37;;;;;;;13.05;9.25;;;;;;;18.27;56.95;95770.44;2098169;28;20494;-59
2023/06/19 00:32:46;;;;;;;14.52;9.00;;;;;;;18.23;56.84;95756.72;2097997;28;20412;-60
2023/06/19 00:33:47;;;;;;;11.50;9.30;;;;;;;18.33;57.00;95775.16;2097266;28;20037;-59
2023/06/19 00:34:49;;;;;;;13.65;9.15;;;;;;;18.28;56.73;95772.94;2097039;28;20369;-60
2023/06/19 00:35:50;;;;;;;14.80;9.20;;;;;;;18.28;56.44;95772.94;2098135;28;20070;-59
2023/06/19 00:36:56;;;;;;;12.77;9.60;;;;;;;18.17;56.10;95757.19;2098220;28;20043;-59
2023/06/19 00:38:00;;;;;;;11.65;9.15;;;;;;;18.24;56.17;95773.31;2097708;28;20047;-59
2023/06/19 00:39:02;;;;;;;14.57;8.98;;;;;;;18.22;56.67;95775.22;2089549;28;20063;-59
2023/06/19 00:40:04;;;;;;;13.35;8.55;;;;;;;18.17;56.55;95762.44;2097418;28;20044;-59
2023/06/19 00:41:05;;;;;;;10.02;8.20;;;;;;;18.07;56.99;95756.28;2098181;28;20040;-59
2023/06/19 00:42:06;;;;;;;11.68;8.85;;;;;;;18.00;56.25;95750.69;2097476;28;20048;-60
2023/06/19 00:43:07;;;;;;;12.73;9.10;;;;;;;18.05;56.93;95766.91;2096873;28;20500;-59
2023/06/19 00:44:09;;;;;;;11.98;9.80;;;;;;;18.02;56.59;95776.84;2098016;28;20048;-59
2023/06/19 00:45:10;;;;;;;13.98;9.27;;;;;;;17.94;57.51;95766.13;2098067;28;20048;-59
2023/06/19 00:46:11;;;;;;;15.05;9.02;;;;;;;17.91;56.67;95777.69;2098337;28;20408;-59
2023/06/19 00:47:12;;;;;;;12.32;8.88;;;;;;;17.88;57.95;95771.84;2098111;28;20048;-59
2023/06/19 00:48:14;;;;;;;11.68;8.88;;;;;;;17.88;57.82;95771.84;2096768;28;20056;-59
2023/06/19 00:49:15;;;;;;;11.23;9.35;;;;;;;17.86;57.97;95779.84;2080906;28;20056;-59
2023/06/19 00:50:16;;;;;;;11.02;9.13;;;;;;;17.85;58.43;95786.91;2089282;28;20056;-59
2023/06/19 00:51:17;;;;;;;13.43;9.35;;;;;;;17.84;58.50;95779.13;2098098;28;20036;-59
2023/06/19 00:52:19;;;;;;;13.95;9.95;;;;;;;17.83;58.19;95770.44;2097522;28;20051;-59
2023/06/19 00:53:21;;;;;;;11.98;10.13;;;;;;;17.87;57.36;95780.69;2089338;28;20055;-59
2023/06/19 00:54:22;;;;;;;14.20;9.40;;;;;;;17.87;57.90;95783.31;2080923;28;20053;-59
2023/06/19 00:55:23;;;;;;;12.45;8.90;;;;;;;17.83;58.23;95780.94;2097063;28;20057;-59
2023/06/19 00:56:24;;;;;;;13.20;9.30;;;;;;;17.81;57.69;95780.22;2097614;28;20044;-59
2023/06/19 00:57:25;;;;;;;15.95;8.88;;;;;;;17.83;58.55;95783.56;2089035;28;20045;-60
2023/06/19 00:58:26;;;;;;;14.60;9.45;;;;;;;17.74;58.64;95771.13;2088967;28;20052;-59
2023/06/19 00:59:28;;;;;;;12.27;9.32;;;;;;;17.80;57.91;95791.69;2097588;28;20045;-59
2023/06/19 01:00:29;;;;;;;10.73;9.15;;;;;;;17.77;57.70;95785.78;2089225;28;20049;-59
2023/06/19 01:01:32;;;;;;;14.32;9.68;;;;;;;17.74;57.14;95784.25;2080686;28;20461;-59
2023/06/19 01:02:33;;;;;;;15.55;8.80;;;;;;;17.79;57.59;95782.13;2096977;28;20061;-59
2023/06/19 01:03:36;;;;;;;11.93;9.15;;;;;;;17.75;57.64;95785.94;2097121;28;20056;-59
2023/06/19 01:04:37;;;;;;;13.90;10.02;;;;;;;17.73;57.14;95787.84;2088542;28;20068;-59
2023/06/19 01:05:38;;;;;;;13.50;9.40;;;;;;;17.70;57.58;95774.97;2089279;28;20132;-59
2023/06/19 01:06:50;;;;;;;12.90;9.40;;;;;;;17.60;57.45;95769.59;2104048;28;20427;-59
2023/06/19 01:08:00;;;;;;;13.27;8.88;;;;;;;17.68;57.92;95789.16;2105786;28;20090;-59
2023/06/19 01:09:04;;;;;;;14.30;9.45;;;;;;;17.63;58.03;95782.47;2099215;28;20057;-59
2023/06/19 01:10:05;;;;;;;13.55;10.00;;;;;;;17.64;57.16;95783.28;2097851;28;20040;-59
2023/06/19 01:11:07;;;;;;;13.55;9.18;;;;;;;17.63;58.23;95779.00;2097096;28;20052;-59
2023/06/19 01:12:15;;;;;;;14.90;9.20;;;;;;;17.62;58.09;95786.06;2097332;28;20041;-59
2023/06/19 01:13:34;;;;;;;11.48;9.73;;;;;;;17.60;58.20;95784.50;2105865;28;20040;-59
2023/06/19 01:14:39;;;;;;;14.73;9.45;;;;;;;17.50;58.36;95771.25;2096684;28;20056;-59
2023/06/19 01:15:40;;;;;;;13.43;10.20;;;;;;;17.58;58.16;95786.41;2089309;28;20063;-59
2023/06/19 01:16:43;;;;;;;10.75;8.82;;;;;;;17.57;58.01;95790.84;2097412;28;20435;-59
2023/06/19 01:17:45;;;;;;;11.45;9.27;;;;;;;17.57;58.06;95792.63;2105205;28;20044;-59
2023/06/19 01:18:46;;;;;;;10.40;8.45;;;;;;;17.55;58.34;95790.13;2097123;28;20048;-59
2023/06/19 01:19:48;;;;;;;10.88;8.73;;;;;;;17.44;58.69;95768.28;2089184;28;20041;-59
2023/06/19 01:20:49;;;;;;;11.98;9.13;;;;;;;17.48;58.08;95777.59;2088819;28;20086;-59
2023/06/19 01:21:50;;;;;;;11.57;8.80;;;;;;;17.52;59.11;95787.72;2105046;28;20071;-59
2023/06/19 01:22:56;;;;;;;11.25;9.05;;;;;;;17.52;58.61;95786.91;2106537;28;20479;-58
2023/06/19 01:23:57;;;;;;;13.00;9.88;;;;;;;17.53;59.23;95785.94;2108238;28;20032;-59
2023/06/19 01:24:58;;;;;;;12.30;9.60;;;;;;;17.46;58.67;95777.72;2107259;28;20044;-59
2023/06/19 01:25:59;;;;;;;13.60;9.15;;;;;;;17.54;59.69;95791.06;2098335;28;20500;-59
2023/06/19 01:27:00;;;;;;;13.93;10.10;;;;;;;17.53;59.09;95783.31;2099183;28;20132;-59
2023/06/19 01:28:04;;;;;;;12.85;9.45;;;;;;;17.56;59.32;95789.19;2098925;28;20048;-59
2023/06/19 01:29:05;;;;;;;14.52;9.70;;;;;;;17.56;58.82;95783.06;2090401;28;20053;-59
2023/06/19 01:30:07;;;;;;;13.20;9.38;;;;;;;17.58;59.99;95787.25;2099277;28;20474;-59
2023/06/19 01:31:12;;;;;;;11.48;9.70;;;;;;;17.59;59.30;95785.47;2106429;28;20071;-59
2023/06/19 01:32:17;;;;;;;14.82;9.55;;;;;;;17.52;58.70;95768.53;2098675;28;20376;-59
2023/06/19 01:33:23;;;;;;;11.13;9.68;;;;;;;17.65;58.97;95787.59;2091066;28;20056;-59
2023/06/19 01:34:24;;;;;;;12.25;9.30;;;;;;;17.67;59.03;95784.84;2099525;28;20068;-59
2023/06/19 01:35:28;;;;;;;14.32;9.80;;;;;;;17.68;58.84;95786.53;2098236;28;20466;-59
2023/06/19 01:36:30;;;;;;;14.18;9.98;;;;;;;17.76;59.19;95784.97;2090582;28;20052;-60
2023/06/19 01:37:34;;;;;;;15.95;9.50;;;;;;;17.77;59.02;95784.00;2098849;28;20538;-59
2023/06/19 01:38:35;;;;;;;11.35;9.02;;;;;;;17.81;58.98;95785.47;2090815;28;20098;-59
2023/06/19 01:39:36;;;;;;;11.30;9.73;;;;;;;17.82;58.78;95792.38;2090329;28;20049;-59
2023/06/19 01:40:37;;;;;;;11.55;9.70;;;;;;;17.85;58.14;95789.53;2090739;28;20051;-59
2023/06/19 01:41:39;;;;;;;12.10;9.45;;;;;;;17.88;57.76;95784.97;2090548;28;20064;-59
2023/06/19 01:42:40;;;;;;;13.50;9.95;;;;;;;17.94;57.73;95790.59;2090496;28;20484;-62
2023/06/19 01:43:41;;;;;;;15.27;9.85;;;;;;;17.96;58.36;95785.19;2090937;28;20052;-63
2023/06/19 01:44:42;;;;;;;12.13;9.73;;;;;;;18.00;57.76;95791.88;2090025;28;20056;-63
2023/06/19 01:45:43;;;;;;;14.63;10.18;;;;;;;18.02;58.21;95782.94;2090384;28;20048;-63
2023/06/19 01:46:48;;;;;;;11.73;9.23;;;;;;;18.03;58.13;95784.59;2082388;28;20454;-62
2023/06/19 01:47:49;;;;;;;11.52;9.30;;;;;;;18.04;57.76;95783.66;2099355;28;20071;-63
2023/06/19 01:48:50;;;;;;;12.63;9.48;;;;;;;18.11;57.02;95783.13;2107156;28;20043;-62
2023/06/19 01:49:51;;;;;;;11.45;9.02;;;;;;;18.12;57.87;95779.53;2098777;28;20033;-63
2023/06/19 01:50:52;;;;;;;12.52;9.70;;;;;;;18.14;57.01;95778.47;2090815;28;20049;-63
2023/06/19 01:51:55;;;;;;;13.10;9.88;;;;;;;18.17;57.39;95777.38;2099013;28;20048;-62
2023/06/19 01:52:56;;;;;;;13.73;10.27;;;;;;;18.16;57.65;95776.56;2107092;28;20036;-63
2023/06/19 01:53:57;;;;;;;12.15;9.50;;;;;;;18.21;57.55;95777.03;2107208;28;20503;-63
2023/06/19 01:54:58;;;;;;;14.38;9.88;;;;;;;18.23;57.49;95775.09;2107776;28;20040;-62
2023/06/19 01:55:59;;;;;;;13.82;9.65;;;;;;;18.21;57.55;95770.94;2106993;28;20044;-63
2023/06/19 01:57:00;;;;;;;13.82;10.32;;;;;;;18.28;57.11;95777.34;2097918;28;20626;-63
2023/06/19 01:58:01;;;;;;;15.48;10.20;;;;;;;18.27;56.95;95775.69;2098683;28;20055;-63
2023/06/19 01:59:04;;;;;;;13.35;10.15;;;;;;;18.21;56.81;95763.88;2098891;28;20045;-63
2023/06/19 02:00:07;;;;;;;12.48;10.25;;;;;;;18.21;56.62;95757.78;2097720;28;20052;-62
2023/06/19 02:01:15;;;;;;;14.63;9.98;;;;;;;18.28;57.56;95772.94;2107489;28;20040;-63
2023/06/19 02:02:16;;;;;;;13.60;9.98;;;;;;;18.30;56.99;95770.16;2107286;28;20056;-63
2023/06/19 02:03:17;;;;;;;12.40;9.77;;;;;;;18.30;56.97;95778.88;2107534;28;20494;-63
2023/06/19 02:04:19;;;;;;;16.55;10.10;;;;;;;18.31;57.65;95769.22;2106338;28;20063;-63
2023/06/19 02:05:20;;;;;;;13.75;10.23;;;;;;;18.32;57.29;95775.31;2098823;28;20051;-63
2023/06/19 02:06:24;;;;;;;16.20;10.18;;;;;;;18.37;56.66;95779.22;2106009;28;20503;-63
2023/06/19 02:07:25;;;;;;;15.40;10.38;;;;;;;18.36;57.52;95774.91;2107912;28;20058;-63
2023/06/19 02:08:26;;;;;;;15.85;10.73;;;;;;;18.37;57.01;95773.16;2106914;28;20052;-62
2023/06/19 02:09:27;;;;;;;13.27;10.35;;;;;;;18.37;57.37;95770.53;2106093;28;20052;-63
2023/06/19 02:10:28;;;;;;;13.48;10.45;;;;;;;18.37;57.38;95773.16;2106984;28;20055;-63
2023/06/19 02:11:30;;;;;;;14.90;10.60;;;;;;;18.39;56.71;95771.19;2098690;28;20052;-63
2023/06/19 02:12:31;;;;;;;13.65;11.10;;;;;;;18.35;56.85;95770.63;2098736;28;20045;-63
2023/06/19 02:13:33;;;;;;;14.48;11.38;;;;;;;18.40;57.26;95778.16;2106523;28;20052;-63
2023/06/19 02:14:34;;;;;;;14.60;10.43;;;;;;;18.43;56.59;95780.53;2107104;28;20051;-63
2023/06/19 02:15:35;;;;;;;14.40;10.82;;;;;;;18.43;56.78;95776.09;2106832;28;20052;-63
2023/06/19 02:16:37;;;;;;;13.50;11.13;;;;;;;18.43;56.56;95776.09;2098565;28;20119;-63
2023/06/19 02:17:38;;;;;;;12.90;10.50;;;;;;;18.42;57.27;95770.97;2106775;28;20048;-63
2023/06/19 02:18:39;;;;;;;14.48;11.60;;;;;;;18.43;56.61;95778.72;2115682;28;20043;-63
2023/06/19 02:19:40;;;;;;;14.55;11.15;;;;;;;18.42;56.75;95776.25;2107404;28;20048;-62
2023/06/19 02:20:41;;;;;;;13.15;10.85;;;;;;;18.43;56.62;95775.25;2107199;28;20048;-63
2023/06/19 02:21:42;;;;;;;14.88;11.07;;;;;;;18.46;57.00;95777.63;2107597;28;20059;-63
2023/06/19 02:22:43;;;;;;;19.45;11.50;;;;;;;18.49;56.70;95772.94;2107797;28;20040;-63
2023/06/19 02:23:44;;;;;;;12.60;10.07;;;;;;;18.51;56.53;95775.47;2106679;28;20048;-62
2023/06/19 02:24:45;;;;;;;13.10;10.38;;;;;;;18.52;56.96;95783.25;2098541;28;20062;-62
2023/06/19 02:25:48;;;;;;;11.93;10.63;;;;;;;18.50;56.55;95774.63;2106190;28;20399;-63
2023/06/19 02:26:51;;;;;;;15.75;10.50;;;;;;;18.47;56.45;95774.03;2107777;28;20043;-63
2023/06/19 02:27:52;;;;;;;14.80;10.40;;;;;;;18.49;56.64;95772.94;2107351;28;20055;-63
2023/06/19 02:28:54;;;;;;;15.38;10.23;;;;;;;18.49;56.81;95777.38;2107362;28;20059;-63
2023/06/19 02:29:55;;;;;;;16.08;12.18;;;;;;;18.50;56.67;95769.38;2098193;28;20049;-63
2023/06/19 02:30:56;;;;;;;13.52;11.18;;;;;;;18.49;56.13;95766.88;2097866;28;20048;-63
2023/06/19 02:31:57;;;;;;;12.10;10.48;;;;;;;18.50;57.13;95771.19;2106992;28;20040;-63
2023/06/19 02:32:58;;;;;;;11.93;10.50;;;;;;;18.50;56.73;95763.28;2107589;28;20047;-63
2023/06/19 02:34:00;;;;;;;15.35;12.00;;;;;;;18.47;56.58;95771.41;2106369;28;20525;-63
2023/06/19 02:35:03;;;;;;;13.07;10.63;;;;;;;18.47;56.92;95763.53;2106066;28;20491;-63
2023/06/19 02:36:04;;;;;;;15.52;10.85;;;;;;;18.46;57.08;95772.38;2107601;28;20399;-63
2023/06/19 02:37:05;;;;;;;14.73;11.57;;;;;;;18.44;57.24;95769.91;2107483;28;20060;-62
2023/06/19 02:38:06;;;;;;;14.63;11.30;;;;;;;18.45;57.32;95775.97;2107476;28;20044;-63
2023/06/19 02:39:08;;;;;;;14.55;11.02;;;;;;;18.43;57.18;95772.63;2107215;28;20055;-63
2023/06/19 02:40:10;;;;;;;13.95;10.70;;;;;;;18.43;57.15;95768.22;2106719;28;20051;-63
2023/06/19 02:41:11;;;;;;;12.50;10.50;;;;;;;18.29;57.46;95756.19;2106852;28;20040;-68
2023/06/19 02:42:12;;;;;;;16.15;11.30;;;;;;;18.36;57.31;95771.47;2106855;28;20048;-63
2023/06/19 02:43:13;;;;;;;17.70;11.10;;;;;;;18.34;58.10;95770.78;2107381;28;20484;-63
2023/06/19 02:44:15;;;;;;;12.57;11.27;;;;;;;18.32;57.96;95785.84;2107392;28;20059;-63
2023/06/19 02:45:18;;;;;;;14.48;11.45;;;;;;;18.28;58.48;95778.19;2107502;28;20044;-63
2023/06/19 02:46:19;;;;;;;16.58;11.38;;;;;;;18.27;58.57;95776.50;2106661;28;20056;-63
2023/06/19 02:47:21;;;;;;;15.48;10.80;;;;;;;18.18;58.91;95769.38;2106774;28;20048;-63
2023/06/19 02:48:23;;;;;;;15.18;11.25;;;;;;;18.26;59.27;95777.47;2097866;28;20071;-63
2023/06/19 02:49:24;;;;;;;14.85;11.07;;;;;;;18.24;58.94;95784.66;2106716;28;20048;-62
2023/06/19 02:50:25;;;;;;;13.50;11.50;;;;;;;18.21;58.92;95770.94;2107388;28;20036;-62
2023/06/19 02:51:26;;;;;;;16.02;11.70;;;;;;;18.21;58.63;95777.03;2107434;28;20047;-62
2023/06/19 02:52:27;;;;;;;15.90;11.57;;;;;;;18.12;59.35;95772.50;2106960;28;20503;-63
2023/06/19 02:53:28;;;;;;;12.98;10.95;;;;;;;18.12;59.58;95774.28;2106229;28;20052;-63
2023/06/19 02:54:29;;;;;;;14.38;10.98;;;;;;;18.14;59.69;95778.47;2106641;28;20048;-62
2023/06/19 02:55:30;;;;;;;13.90;11.40;;;;;;;18.10;59.45;95774.44;2106769;28;20047;-62
2023/06/19 02:56:32;;;;;;;12.82;10.73;;;;;;;18.10;59.16;95778.84;2098470;28;20049;-63
2023/06/19 02:57:33;;;;;;;13.32;10.88;;;;;;;18.07;59.31;95777.31;2106622;28;20059;-63
2023/06/19 02:58:34;;;;;;;14.02;11.63;;;;;;;18.04;60.23;95782.78;2106693;28;20566;-63
2023/06/19 02:59:35;;;;;;;15.35;11.98;;;;;;;18.01;60.06;95788.28;2097682;28;20048;-62
2023/06/19 03:00:36;;;;;;;14.43;10.85;;;;;;;18.01;59.58;95789.13;2106404;28;20047;-63
2023/06/19 03:01:37;;;;;;;17.00;12.48;;;;;;;17.97;60.49;95781.63;2106852;28;20044;-63
2023/06/19 03:02:41;;;;;;;16.67;11.40;;;;;;;17.94;60.77;95790.59;2105994;28;20063;-62
2023/06/19 03:03:42;;;;;;;16.60;12.82;;;;;;;17.91;60.72;95795.22;2107319;28;20039;-62
2023/06/19 03:04:46;;;;;;;13.70;11.98;;;;;;;17.91;60.52;95787.34;2106873;28;20056;-63
2023/06/19 03:05:47;;;;;;;14.45;11.20;;;;;;;17.86;60.50;95779.84;2105902;28;20048;-62
2023/06/19 03:06:50;;;;;;;14.80;11.65;;;;;;;17.84;61.39;95787.84;2089157;28;20424;-62
2023/06/19 03:07:51;;;;;;;19.25;12.35;;;;;;;17.82;61.74;95791.56;2098037;28;20063;-62
2023/06/19 03:08:52;;;;;;;15.43;12.20;;;;;;;17.78;61.85;95788.31;2097495;28;20052;-62
2023/06/19 03:09:54;;;;;;;16.38;11.90;;;;;;;17.80;61.26;95790.84;2098639;28;20056;-63
2023/06/19 03:10:55;;;;;;;14.55;11.10;;;;;;;17.80;60.96;95794.31;2098844;28;20067;-63
2023/06/19 03:11:56;;;;;;;16.80;12.02;;;;;;;17.82;61.48;95794.19;2097686;28;20052;-63
2023/06/19 03:12:58;;;;;;;13.07;11.68;;;;;;;17.80;61.51;95801.34;2098176;28;20496;-63
2023/06/19 03:14:06;;;;;;;16.92;12.50;;;;;;;17.79;61.71;95797.88;2097388;28;20063;-63
2023/06/19 03:15:08;;;;;;;15.95;11.82;;;;;;;17.70;62.45;95782.84;2097981;28;20056;-63
2023/06/19 03:16:12;;;;;;;17.77;11.68;;;;;;;17.74;62.01;95805.25;2090212;28;20049;-63
2023/06/19 03:17:14;;;;;;;14.57;12.10;;;;;;;17.76;62.39;95805.97;2097705;28;20057;-63
2023/06/19 03:18:15;;;;;;;16.45;11.90;;;;;;;17.78;62.29;95803.25;2098116;28;20041;-63
2023/06/19 03:19:16;;;;;;;17.95;11.60;;;;;;;17.67;62.25;95783.09;2097719;28;20048;-63
2023/06/19 03:20:17;;;;;;;14.00;12.35;;;;;;;17.78;62.57;95806.69;2097931;28;20041;-62
2023/06/19 03:21:25;;;;;;;17.30;12.00;;;;;;;17.80;62.20;95817.09;2098399;28;20056;-63
2023/06/19 03:22:26;;;;;;;16.73;12.02;;;;;;;17.79;62.33;95804.94;2089247;28;20049;-63
2023/06/19 03:23:27;;;;;;;15.77;11.90;;;;;;;17.80;62.30;95809.22;2089820;28;20534;-62
2023/06/19 03:24:29;;;;;;;16.70;12.75;;;;;;;17.81;62.71;95814.38;2089782;28;20052;-62
2023/06/19 03:25:42;;;;;;;13.80;11.80;;;;;;;17.83;61.93;95819.50;2091213;28;20037;-63
2023/06/19 03:26:44;;;;;;;15.70;12.13;;;;;;;17.88;61.58;95819.13;2089763;28;20048;-63
2023/06/19 03:27:46;;;;;;;15.52;11.93;;;;;;;17.85;62.21;95815.81;2089442;28;20056;-63
2023/06/19 03:28:48;;;;;;;19.75;12.18;;;;;;;17.90;62.64;95820.66;2089202;28;20055;-62
2023/06/19 03:29:49;;;;;;;14.50;12.05;;;;;;;17.92;61.92;95823.19;2098291;28;20047;-62
2023/06/19 03:30:56;;;;;;;16.00;11.70;;;;;;;17.93;62.44;95825.69;2098043;28;20047;-63
2023/06/19 03:31:58;;;;;;;16.35;11.30;;;;;;;17.95;62.04;95831.66;2089986;28;20037;-63
2023/06/19 03:33:04;;;;;;;16.95;12.90;;;;;;;18.00;61.74;95839.19;2090586;28;20404;-63
2023/06/19 03:34:15;;;;;;;17.45;11.90;;;;;;;18.00;62.17;95837.38;2097845;28;20447;-63
2023/06/19 03:35:16;;;;;;;14.45;11.48;;;;;;;18.01;62.04;95840.84;2097977;28;20048;-63
2023/06/19 03:36:19;;;;;;;14.93;11.85;;;;;;;18.00;62.16;95842.63;2098553;28;20045;-63
2023/06/19 03:37:24;;;;;;;15.15;11.95;;;;;;;18.01;62.23;95846.09;2097907;28;20416;-63
2023/06/19 03:38:25;;;;;;;14.20;12.45;;;;;;;18.05;62.21;95847.53;2088765;28;20060;-63
2023/06/19 03:39:27;;;;;;;14.27;12.25;;;;;;;18.05;62.03;95847.53;2089558;28;20068;-63
2023/06/19 03:40:34;;;;;;;14.45;12.07;;;;;;;18.07;62.38;95848.25;2097870;28;20049;-63
2023/06/19 03:41:41;;;;;;;13.88;11.73;;;;;;;18.10;61.58;95848.00;2090743;28;20041;-62
2023/06/19 03:42:43;;;;;;;17.45;11.95;;;;;;;18.15;60.95;95843.22;2089831;28;20044;-63
2023/06/19 03:43:44;;;;;;;16.00;11.93;;;;;;;18.17;61.85;95853.59;2097879;28;20077;-63
2023/06/19 03:44:45;;;;;;;17.08;12.50;;;;;;;18.16;60.95;95846.69;2097937;28;20048;-63
2023/06/19 03:45:46;;;;;;;15.02;11.43;;;;;;;18.19;61.66;95856.94;2097955;28;20044;-63
2023/06/19 03:46:47;;;;;;;19.15;12.35;;;;;;;18.21;61.41;95858.50;2096225;28;20044;-63
2023/06/19 03:47:49;;;;;;;16.05;11.88;;;;;;;18.24;61.42;95862.66;2097814;28;20515;-63
2023/06/19 03:48:50;;;;;;;16.42;12.18;;;;;;;18.27;61.73;95852.72;2089461;28;20065;-63
2023/06/19 03:49:51;;;;;;;17.58;12.20;;;;;;;18.26;61.86;95856.34;2097194;28;20052;-63
2023/06/19 03:50:55;;;;;;;17.55;12.63;;;;;;;18.29;61.21;95863.97;2097765;28;20161;-63
2023/06/19 03:51:56;;;;;;;15.88;12.40;;;;;;;18.30;61.42;95862.16;2089633;28;20393;-63
2023/06/19 03:52:58;;;;;;;18.00;13.30;;;;;;;18.29;61.89;95865.78;2089689;28;20049;-63
2023/06/19 03:54:00;;;;;;;13.50;12.10;;;;;;;18.29;61.89;95877.09;2097618;28;20048;-63
2023/06/19 03:55:02;;;;;;;17.08;12.18;;;;;;;18.32;61.37;95876.03;2089468;28;20044;-63
2023/06/19 03:56:03;;;;;;;18.08;12.02;;;;;;;18.33;61.45;95872.44;2080966;28;20424;-63
2023/06/19 03:57:04;;;;;;;17.55;11.90;;;;;;;18.28;61.56;95861.44;2081262;28;20507;-63
2023/06/19 03:58:06;;;;;;;16.85;12.52;;;;;;;18.25;62.10;95862.53;2097643;28;20056;-63
2023/06/19 03:59:07;;;;;;;16.17;12.60;;;;;;;18.29;62.01;95873.66;2097813;28;20044;-62
2023/06/19 04:00:10;;;;;;;14.45;11.77;;;;;;;18.40;61.42;95875.41;2089049;28;20052;-63
2023/06/19 04:01:15;;;;;;;15.20;11.27;;;;;;;18.43;61.39;95881.25;2098066;28;20047;-63
2023/06/19 04:02:16;;;;;;;16.92;11.93;;;;;;;18.46;61.35;95873.13;2097962;28;20057;-63
2023/06/19 04:03:18;;;;;;;13.77;11.52;;;;;;;18.52;60.88;95884.94;2097521;28;20048;-63
2023/06/19 04:04:20;;;;;;;19.10;12.23;;;;;;;18.55;61.11;95879.44;2096943;28;20079;-63
2023/06/19 04:05:21;;;;;;;14.68;11.55;;;;;;;18.59;61.00;95875.59;2097121;28;20050;-63
2023/06/19 04:06:23;;;;;;;18.05;12.32;;;;;;;18.62;61.16;95877.97;2085797;28;20057;-63
2023/06/19 04:07:24;;;;;;;17.17;11.40;;;;;;;18.64;60.60;95880.50;2089518;28;20053;-63
2023/06/19 04:08:26;;;;;;;16.25;11.63;;;;;;;18.69;60.55;95884.41;2097265;28;20515;-63
2023/06/19 04:09:27;;;;;;;16.60;11.80;;;;;;;18.73;59.99;95879.72;2106114;28;20059;-63
2023/06/19 04:10:28;;;;;;;14.05;11.48;;;;;;;18.73;60.14;95877.94;2097462;28;20515;-63
2023/06/19 04:11:29;;;;;;;15.63;11.77;;;;;;;18.77;60.50;95886.47;2105411;28;20055;-63
2023/06/19 04:12:32;;;;;;;14.40;11.20;;;;;;;18.81;60.50;95887.03;2097697;28;20397;-63
2023/06/19 04:13:33;;;;;;;14.50;11.45;;;;;;;18.82;59.96;95888.69;2097656;28;20092;-63
2023/06/19 04:14:34;;;;;;;14.98;11.13;;;;;;;18.84;60.47;95886.78;2106256;28;20052;-63
2023/06/19 04:15:35;;;;;;;16.15;11.50;;;;;;;18.86;59.99;95890.94;2106151;28;20055;-63
2023/06/19 04:16:36;;;;;;;14.73;10.60;;;;;;;18.87;60.17;95890.00;2097523;28;20048;-63
2023/06/19 04:17:37;;;;;;;12.90;10.95;;;;;;;18.88;59.56;95886.41;2105582;28;20496;-63
2023/06/19 04:18:38;;;;;;;18.35;11.65;;;;;;;18.91;60.00;95883.53;2106473;28;20056;-63
2023/06/19 04:19:40;;;;;;;14.23;10.63;;;;;;;18.98;59.04;95893.53;2105834;28;20048;-63
2023/06/19 04:20:41;;;;;;;12.10;10.80;;;;;;;18.99;59.22;95905.75;2105612;28;20060;-63
2023/06/19 04:21:42;;;;;;;12.65;10.32;;;;;;;18.98;58.84;95896.16;2106081;28;20044;-63
2023/06/19 04:22:43;;;;;;;13.10;9.90;;;;;;;18.89;59.33;95884.59;2105902;28;20048;-63
2023/06/19 04:23:44;;;;;;;13.07;9.95;;;;;;;19.00;59.22;95902.13;2106093;28;20411;-63
2023/06/19 04:24:45;;;;;;;12.65;10.25;;;;;;;19.01;58.85;95909.09;2105058;28;20055;-63
2023/06/19 04:25:46;;;;;;;14.70;10.18;;;;;;;19.02;58.81;95908.13;2096794;28;20059;-63
2023/06/19 04:26:47;;;;;;;12.00;10.00;;;;;;;19.03;58.51;95904.50;2089183;28;20067;-64
2023/06/19 04:27:49;;;;;;;11.15;9.40;;;;;;;19.00;58.48;95900.34;2097296;28;20060;-63
2023/06/19 04:28:50;;;;;;;12.70;10.40;;;;;;;18.93;59.00;95888.66;2106842;28;20047;-63
2023/06/19 04:29:52;;;;;;;11.88;9.10;;;;;;;18.98;58.70;95897.03;2106544;28;20131;-63
2023/06/19 04:30:59;;;;;;;12.13;9.98;;;;;;;18.98;58.49;95897.03;2106567;28;20046;-63
2023/06/19 04:32:03;;;;;;;14.77;9.95;;;;;;;18.92;58.45;95889.59;2106775;28;20036;-62
2023/06/19 04:33:04;;;;;;;17.98;9.70;;;;;;;19.05;57.80;95913.13;2106760;28;20044;-64
2023/06/19 04:34:05;;;;;;;12.48;9.60;;;;;;;18.99;57.99;95890.78;2105983;28;20419;-63
2023/06/19 04:35:09;;;;;;;13.95;9.02;;;;;;;19.03;58.42;95908.00;2106260;28;20055;-62
2023/06/19 04:36:10;;;;;;;12.02;9.15;;;;;;;19.06;57.80;95913.00;2105987;28;20071;-63
2023/06/19 04:37:12;;;;;;;10.82;8.70;;;;;;;19.01;57.74;95899.41;2105267;28;20063;-63
2023/06/19 04:38:14;;;;;;;13.13;8.93;;;;;;;19.09;57.88;95906.66;2106154;28;20056;-63
2023/06/19 04:39:15;;;;;;;11.05;9.15;;;;;;;19.05;57.56;95897.34;2105332;28;20371;-63
2023/06/19 04:40:16;;;;;;;11.30;9.02;;;;;;;19.09;58.42;95906.66;2105959;28;20036;-63
2023/06/19 04:41:17;;;;;;;10.63;9.15;;;;;;;19.09;57.58;95914.56;2106062;28;20052;-63
2023/06/19 04:42:20;;;;;;;11.90;9.43;;;;;;;19.11;57.69;95909.97;2106235;28;20048;-63
2023/06/19 04:43:21;;;;;;;11.48;9.02;;;;;;;19.09;57.68;95910.13;2104875;28;20552;-64
2023/06/19 04:44:22;;;;;;;12.82;9.10;;;;;;;19.09;58.09;95917.19;2105808;28;20143;-63
2023/06/19 04:45:23;;;;;;;16.17;9.55;;;;;;;19.10;57.72;95917.03;2106348;28;20067;-63
2023/06/19 04:46:24;;;;;;;12.70;9.07;;;;;;;19.03;58.54;95918.53;2106551;28;20074;-63
2023/06/19 04:47:25;;;;;;;10.35;8.52;;;;;;;19.04;58.30;95908.84;2106919;28;20044;-59